sensor_id;sensor_type;location;lat;lon;timestamp;pressure;altitude;pressure_sealevel;temperature;humidity
40155;BME280;25875;48.202;16.334;2023-05-18T00:00:38;99632.09;;;9.29;74.46
40155;BME280;25875;48.202;16.334;2023-05-18T00:03:05;99643.53;;;9.30;74.36
40155;BME280;25875;48.202;16.334;2023-05-18T00:05:32;99635.69;;;9.28;74.42
40155;BME280;25875;48.202;16.334;2023-05-18T00:07:59;99630.38;;;9.28;74.20
40155;BME280;25875;48.202;16.334;2023-05-18T00:10:28;99632.25;;;9.26;74.06
40155;BME280;25875;48.202;16.334;2023-05-18T00:12:55;99626.88;;;9.28;74.31
40155;BME280;25875;48.202;16.334;2023-05-18T00:15:21;99627.81;;;9.27;74.19
40155;BME280;25875;48.202;16.334;2023-05-18T00:17:48;99630.38;;;9.28;74.14
40155;BME280;25875;48.202;16.334;2023-05-18T00:20:17;99605.53;;;9.12;74.08
40155;BME280;25875;48.202;16.334;2023-05-18T00:22:46;99624.31;;;9.26;73.95
40155;BME280;25875;48.202;16.334;2023-05-18T00:25:15;99626.97;;;9.26;74.03
40155;BME280;25875;48.202;16.334;2023-05-18T00:27:43;99622.53;;;9.27;74.15
40155;BME280;25875;48.202;16.334;2023-05-18T00:30:11;99599.25;;;9.15;73.92
40155;BME280;25875;48.202;16.334;2023-05-18T00:32:38;99630.38;;;9.28;73.78
40155;BME280;25875;48.202;16.334;2023-05-18T00:35:05;99625.09;;;9.28;73.82
40155;BME280;25875;48.202;16.334;2023-05-18T00:37:32;99626.88;;;9.28;73.74
40155;BME280;25875;48.202;16.334;2023-05-18T00:39:59;99623.44;;;9.26;73.79
40155;BME280;25875;48.202;16.334;2023-05-18T00:42:25;99625.16;;;9.27;73.69
40155;BME280;25875;48.202;16.334;2023-05-18T00:44:54;99632.25;;;9.26;73.61
40155;BME280;25875;48.202;16.334;2023-05-18T00:47:20;99635.75;;;9.27;73.57
40155;BME280;25875;48.202;16.334;2023-05-18T00:49:47;99627.75;;;9.28;73.76
40155;BME280;25875;48.202;16.334;2023-05-18T00:52:15;99629.47;;;9.29;73.64
40155;BME280;25875;48.202;16.334;2023-05-18T00:54:42;99626.81;;;9.29;73.60
40155;BME280;25875;48.202;16.334;2023-05-18T00:57:09;99633.81;;;9.30;73.43
40155;BME280;25875;48.202;16.334;2023-05-18T00:59:35;99633.81;;;9.30;73.38
40155;BME280;25875;48.202;16.334;2023-05-18T01:02:04;99629.38;;;9.31;73.34
40155;BME280;25875;48.202;16.334;2023-05-18T01:04:34;99627.75;;;9.28;73.22
40155;BME280;25875;48.202;16.334;2023-05-18T01:07:02;99603.75;;;9.13;73.02
40155;BME280;25875;48.202;16.334;2023-05-18T01:09:31;99627.03;;;9.25;73.00
40155;BME280;25875;48.202;16.334;2023-05-18T01:12:02;99630.53;;;9.25;73.07
40155;BME280;25875;48.202;16.334;2023-05-18T01:14:34;99630.53;;;9.25;73.16
40155;BME280;25875;48.202;16.334;2023-05-18T01:17:14;99634.88;;;9.26;72.69
40155;BME280;25875;48.202;16.334;2023-05-18T01:20:09;99641.97;;;9.26;72.43
40155;BME280;25875;48.202;16.334;2023-05-18T01:22:47;99636.69;;;8.85;72.61
40155;BME280;25875;48.202;16.334;2023-05-18T01:25:20;99623.66;;;9.21;72.99
40155;BME280;25875;48.202;16.334;2023-05-18T01:27:55;99609.03;;;9.13;73.17
40155;BME280;25875;48.202;16.334;2023-05-18T01:30:25;99625.25;;;9.25;73.18
40155;BME280;25875;48.202;16.334;2023-05-18T01:32:51;99624.44;;;9.23;72.91
40155;BME280;25875;48.202;16.334;2023-05-18T01:35:18;99602.25;;;9.07;72.97
40155;BME280;25875;48.202;16.334;2023-05-18T01:37:45;99627.16;;;9.22;72.85
40155;BME280;25875;48.202;16.334;2023-05-18T01:40:12;99629.75;;;9.23;72.96
40155;BME280;25875;48.202;16.334;2023-05-18T01:42:43;99610.16;;;9.07;72.76
40155;BME280;25875;48.202;16.334;2023-05-18T01:45:20;99636.94;;;9.20;72.63
40155;BME280;25875;48.202;16.334;2023-05-18T01:47:48;99636.06;;;9.19;72.96
40155;BME280;25875;48.202;16.334;2023-05-18T01:50:21;99639.63;;;9.18;72.77
40155;BME280;25875;48.202;16.334;2023-05-18T01:52:52;99596.72;;;8.93;72.78
40155;BME280;25875;48.202;16.334;2023-05-18T01:55:20;99641.34;;;9.19;72.92
40155;BME280;25875;48.202;16.334;2023-05-18T01:57:50;99595.00;;;8.92;72.59
40155;BME280;25875;48.202;16.334;2023-05-18T02:00:20;99642.34;;;9.17;72.65
40155;BME280;25875;48.202;16.334;2023-05-18T02:02:48;99637.00;;;9.18;72.54
40155;BME280;25875;48.202;16.334;2023-05-18T02:05:15;99641.34;;;9.19;72.68
40155;BME280;25875;48.202;16.334;2023-05-18T02:07:42;99626.38;;;9.20;72.58
40155;BME280;25875;48.202;16.334;2023-05-18T02:10:12;99636.06;;;9.19;72.59
40155;BME280;25875;48.202;16.334;2023-05-18T02:12:39;99589.63;;;8.93;72.63
40155;BME280;25875;48.202;16.334;2023-05-18T02:15:06;99633.50;;;9.18;72.46
40155;BME280;25875;48.202;16.334;2023-05-18T02:17:35;99627.34;;;9.17;72.20
40155;BME280;25875;48.202;16.334;2023-05-18T02:20:04;99611.22;;;9.03;72.28
40155;BME280;25875;48.202;16.334;2023-05-18T02:22:32;99629.97;;;9.17;72.14
40155;BME280;25875;48.202;16.334;2023-05-18T02:24:59;99629.13;;;9.17;72.19
40155;BME280;25875;48.202;16.334;2023-05-18T02:27:26;99631.03;;;9.13;72.07
40155;BME280;25875;48.202;16.334;2023-05-18T02:29:52;99631.03;;;9.13;72.36
40155;BME280;25875;48.202;16.334;2023-05-18T02:32:19;99620.09;;;9.02;72.24
40155;BME280;25875;48.202;16.334;2023-05-18T02:34:50;99636.34;;;9.13;71.70
40155;BME280;25875;48.202;16.334;2023-05-18T02:37:17;99636.41;;;9.12;71.79
40155;BME280;25875;48.202;16.334;2023-05-18T02:39:44;99627.63;;;9.11;71.76
40155;BME280;25875;48.202;16.334;2023-05-18T02:42:11;99625.09;;;9.08;71.71
40155;BME280;25875;48.202;16.334;2023-05-18T02:44:38;99627.75;;;9.08;71.78
40155;BME280;25875;48.202;16.334;2023-05-18T02:47:06;99626.88;;;9.08;71.79
40155;BME280;25875;48.202;16.334;2023-05-18T02:49:33;99615.47;;;9.07;71.43
40155;BME280;25875;48.202;16.334;2023-05-18T02:52:01;99620.81;;;9.06;71.54
40155;BME280;25875;48.202;16.334;2023-05-18T02:54:28;99614.72;;;9.04;71.32
40155;BME280;25875;48.202;16.334;2023-05-18T02:56:56;99618.38;;;9.01;71.13
40155;BME280;25875;48.202;16.334;2023-05-18T02:59:23;99607.88;;;8.99;71.48
40155;BME280;25875;48.202;16.334;2023-05-18T03:01:49;99615.81;;;8.99;71.58
40155;BME280;25875;48.202;16.334;2023-05-18T03:04:16;99616.66;;;9.00;71.20
40155;BME280;25875;48.202;16.334;2023-05-18T03:06:44;99616.72;;;8.98;71.29
40155;BME280;25875;48.202;16.334;2023-05-18T03:09:12;99622.88;;;8.99;71.22
40155;BME280;25875;48.202;16.334;2023-05-18T03:11:40;99618.38;;;9.01;71.23
40155;BME280;25875;48.202;16.334;2023-05-18T03:14:06;99620.28;;;8.97;71.02
40155;BME280;25875;48.202;16.334;2023-05-18T03:16:33;99615.00;;;8.97;71.02
40155;BME280;25875;48.202;16.334;2023-05-18T03:19:02;99234.28;;;6.69;70.99
40155;BME280;25875;48.202;16.334;2023-05-18T03:21:29;99625.44;;;9.00;71.20
40155;BME280;25875;48.202;16.334;2023-05-18T03:23:58;99484.56;;;8.20;71.07
40155;BME280;25875;48.202;16.334;2023-05-18T03:26:26;99627.22;;;9.00;70.75
40155;BME280;25875;48.202;16.334;2023-05-18T03:28:55;99629.88;;;9.00;70.68
40155;BME280;25875;48.202;16.334;2023-05-18T03:31:21;99636.88;;;9.01;70.75
40155;BME280;25875;48.202;16.334;2023-05-18T03:33:48;99632.44;;;9.02;70.63
40155;BME280;25875;48.202;16.334;2023-05-18T03:36:15;99598.84;;;8.85;70.72
40155;BME280;25875;48.202;16.334;2023-05-18T03:38:42;99631.53;;;9.03;70.66
40155;BME280;25875;48.202;16.334;2023-05-18T03:41:10;99624.44;;;9.03;70.62
40155;BME280;25875;48.202;16.334;2023-05-18T03:43:38;99636.69;;;9.06;70.48
40155;BME280;25875;48.202;16.334;2023-05-18T03:46:05;99629.59;;;9.06;70.40
40155;BME280;25875;48.202;16.334;2023-05-18T03:48:31;99630.47;;;9.07;70.16
40155;BME280;25875;48.202;16.334;2023-05-18T03:50:58;99622.66;;;9.04;70.10
40155;BME280;25875;48.202;16.334;2023-05-18T03:53:25;99627.88;;;9.05;70.12
40155;BME280;25875;48.202;16.334;2023-05-18T03:55:53;99627.88;;;9.05;69.99
40155;BME280;25875;48.202;16.334;2023-05-18T03:58:21;99621.69;;;9.06;69.97
40155;BME280;25875;48.202;16.334;2023-05-18T04:00:49;99627.75;;;9.08;69.96
40155;BME280;25875;48.202;16.334;2023-05-18T04:03:17;99633.03;;;9.08;69.96
40155;BME280;25875;48.202;16.334;2023-05-18T04:05:45;99626.81;;;9.09;69.81
40155;BME280;25875;48.202;16.334;2023-05-18T04:08:14;99635.53;;;9.11;69.75
40155;BME280;25875;48.202;16.334;2023-05-18T04:10:41;99641.63;;;9.13;69.67
40155;BME280;25875;48.202;16.334;2023-05-18T04:13:07;99634.56;;;9.14;69.55
40155;BME280;25875;48.202;16.334;2023-05-18T04:15:34;99650.34;;;9.15;69.41
40155;BME280;25875;48.202;16.334;2023-05-18T04:18:03;99605.56;;;8.92;69.20
40155;BME280;25875;48.202;16.334;2023-05-18T04:20:29;99636.28;;;9.15;69.36
40155;BME280;25875;48.202;16.334;2023-05-18T04:22:56;99608.41;;;8.87;69.12
40155;BME280;25875;48.202;16.334;2023-05-18T04:25:23;99652.91;;;9.17;69.11
40155;BME280;25875;48.202;16.334;2023-05-18T04:27:52;99644.91;;;9.18;69.02
40155;BME280;25875;48.202;16.334;2023-05-18T04:30:19;99577.66;;;8.66;68.94
40155;BME280;25875;48.202;16.334;2023-05-18T04:32:47;99661.59;;;9.20;69.04
40155;BME280;25875;48.202;16.334;2023-05-18T04:35:15;99657.22;;;9.19;68.79
40155;BME280;25875;48.202;16.334;2023-05-18T04:37:42;99660.75;;;9.20;68.91
40155;BME280;25875;48.202;16.334;2023-05-18T04:40:10;99651.88;;;9.21;68.64
40155;BME280;25875;48.202;16.334;2023-05-18T04:42:38;99611.06;;;8.87;68.72
40155;BME280;25875;48.202;16.334;2023-05-18T04:45:10;99651.94;;;9.19;68.49
40155;BME280;25875;48.202;16.334;2023-05-18T04:47:41;99503.44;;;8.31;68.52
40155;BME280;25875;48.202;16.334;2023-05-18T04:50:11;99652.81;;;9.20;68.39
40155;BME280;25875;48.202;16.334;2023-05-18T04:52:40;99658.97;;;9.20;68.49
40155;BME280;25875;48.202;16.334;2023-05-18T04:55:12;99643.09;;;9.20;68.46
40155;BME280;25875;48.202;16.334;2023-05-18T04:57:39;99655.41;;;9.21;68.30
40155;BME280;25875;48.202;16.334;2023-05-18T05:00:06;99654.47;;;9.22;68.21
40155;BME280;25875;48.202;16.334;2023-05-18T05:02:34;99653.69;;;9.20;68.26
40155;BME280;25875;48.202;16.334;2023-05-18T05:05:00;99659.81;;;9.21;68.29
40155;BME280;25875;48.202;16.334;2023-05-18T05:07:27;99651.88;;;9.21;68.36
40155;BME280;25875;48.202;16.334;2023-05-18T05:09:55;99663.31;;;9.21;68.15
40155;BME280;25875;48.202;16.334;2023-05-18T05:12:22;99661.53;;;9.22;68.13
40155;BME280;25875;48.202;16.334;2023-05-18T05:14:49;99664.97;;;9.24;67.89
40155;BME280;25875;48.202;16.334;2023-05-18T05:17:15;99664.97;;;9.24;67.83
40155;BME280;25875;48.202;16.334;2023-05-18T05:19:42;99658.81;;;9.23;67.78
40155;BME280;25875;48.202;16.334;2023-05-18T05:22:09;99665.84;;;9.24;67.80
40155;BME280;25875;48.202;16.334;2023-05-18T05:24:35;99671.00;;;9.27;68.11
40155;BME280;25875;48.202;16.334;2023-05-18T05:27:04;99616.59;;;9.02;67.64
40155;BME280;25875;48.202;16.334;2023-05-18T05:29:30;99661.34;;;9.26;67.91
40155;BME280;25875;48.202;16.334;2023-05-18T05:31:57;99679.84;;;9.26;67.97
40155;BME280;25875;48.202;16.334;2023-05-18T05:34:24;99679.72;;;9.29;67.89
40155;BME280;25875;48.202;16.334;2023-05-18T05:36:51;99677.06;;;9.29;67.71
40155;BME280;25875;48.202;16.334;2023-05-18T05:39:17;99676.13;;;9.30;67.55
40155;BME280;25875;48.202;16.334;2023-05-18T05:41:45;99678.78;;;9.30;67.43
40155;BME280;25875;48.202;16.334;2023-05-18T05:44:13;99672.56;;;9.31;67.33
40155;BME280;25875;48.202;16.334;2023-05-18T05:46:40;99676.13;;;9.30;67.48
40155;BME280;25875;48.202;16.334;2023-05-18T05:49:07;99680.50;;;9.31;67.70
40155;BME280;25875;48.202;16.334;2023-05-18T05:51:33;99671.50;;;9.36;67.52
40155;BME280;25875;48.202;16.334;2023-05-18T05:54:00;99675.88;;;9.37;67.10
40155;BME280;25875;48.202;16.334;2023-05-18T05:56:27;99670.66;;;9.35;67.14
40155;BME280;25875;48.202;16.334;2023-05-18T05:58:53;99676.72;;;9.37;67.13
40155;BME280;25875;48.202;16.334;2023-05-18T06:01:22;99688.22;;;9.36;66.90
40155;BME280;25875;48.202;16.334;2023-05-18T06:03:48;99690.94;;;9.35;66.96
40155;BME280;25875;48.202;16.334;2023-05-18T06:06:16;99688.31;;;9.35;66.74
40155;BME280;25875;48.202;16.334;2023-05-18T06:08:43;99684.78;;;9.34;66.76
40155;BME280;25875;48.202;16.334;2023-05-18T06:11:10;99653.53;;;9.23;66.81
40155;BME280;25875;48.202;16.334;2023-05-18T06:13:37;99676.72;;;9.37;66.61
40155;BME280;25875;48.202;16.334;2023-05-18T06:16:04;99687.19;;;9.40;66.63
40155;BME280;25875;48.202;16.334;2023-05-18T06:18:32;99689.78;;;9.42;66.44
40155;BME280;25875;48.202;16.334;2023-05-18T06:20:59;99690.63;;;9.42;66.60
40155;BME280;25875;48.202;16.334;2023-05-18T06:23:26;99701.06;;;9.45;66.56
40155;BME280;25875;48.202;16.334;2023-05-18T06:25:53;99692.22;;;9.46;66.43
40155;BME280;25875;48.202;16.334;2023-05-18T06:28:20;99694.84;;;9.46;66.41
40155;BME280;25875;48.202;16.334;2023-05-18T06:30:46;99692.22;;;9.46;66.42
40155;BME280;25875;48.202;16.334;2023-05-18T06:33:13;99701.78;;;9.49;66.38
40155;BME280;25875;48.202;16.334;2023-05-18T06:35:41;99697.28;;;9.51;66.38
40155;BME280;25875;48.202;16.334;2023-05-18T06:38:09;99713.16;;;9.51;66.52
40155;BME280;25875;48.202;16.334;2023-05-18T06:40:36;99713.97;;;9.53;66.29
40155;BME280;25875;48.202;16.334;2023-05-18T06:43:02;99706.94;;;9.52;66.32
40155;BME280;25875;48.202;16.334;2023-05-18T06:45:29;99705.16;;;9.52;66.23
40155;BME280;25875;48.202;16.334;2023-05-18T06:47:56;99715.69;;;9.54;66.13
40155;BME280;25875;48.202;16.334;2023-05-18T06:50:22;99713.97;;;9.53;66.32
40155;BME280;25875;48.202;16.334;2023-05-18T06:52:51;99709.53;;;9.53;66.29
40155;BME280;25875;48.202;16.334;2023-05-18T06:55:17;99708.59;;;9.54;66.30
40155;BME280;25875;48.202;16.334;2023-05-18T06:57:44;99699.72;;;9.55;66.39
40155;BME280;25875;48.202;16.334;2023-05-18T07:00:11;99717.25;;;9.58;66.22
40155;BME280;25875;48.202;16.334;2023-05-18T07:02:38;99676.56;;;9.21;66.33
40155;BME280;25875;48.202;16.334;2023-05-18T07:05:07;99711.09;;;9.57;66.26
40155;BME280;25875;48.202;16.334;2023-05-18T07:07:34;99720.69;;;9.60;66.33
40155;BME280;25875;48.202;16.334;2023-05-18T07:10:04;99717.19;;;9.59;66.26
40155;BME280;25875;48.202;16.334;2023-05-18T07:12:31;99717.97;;;9.61;66.47
40155;BME280;25875;48.202;16.334;2023-05-18T07:14:58;99721.47;;;9.62;66.49
40155;BME280;25875;48.202;16.334;2023-05-18T07:17:25;99731.22;;;9.61;66.49
40155;BME280;25875;48.202;16.334;2023-05-18T07:19:51;99672.56;;;9.31;66.42
40155;BME280;25875;48.202;16.334;2023-05-18T07:22:19;99721.47;;;9.62;66.64
40155;BME280;25875;48.202;16.334;2023-05-18T07:24:45;99721.41;;;9.63;66.18
40155;BME280;25875;48.202;16.334;2023-05-18T07:27:13;99721.47;;;9.62;66.27
40155;BME280;25875;48.202;16.334;2023-05-18T07:29:40;99728.56;;;9.61;66.21
40155;BME280;25875;48.202;16.334;2023-05-18T07:32:07;99724.91;;;9.64;66.24
40155;BME280;25875;48.202;16.334;2023-05-18T07:34:34;99671.00;;;9.27;66.25
40155;BME280;25875;48.202;16.334;2023-05-18T07:37:01;99742.44;;;9.67;66.26
40155;BME280;25875;48.202;16.334;2023-05-18T07:39:28;99742.44;;;9.67;66.26
40155;BME280;25875;48.202;16.334;2023-05-18T07:41:54;99730.00;;;9.69;66.29
40155;BME280;25875;48.202;16.334;2023-05-18T07:44:23;99731.78;;;9.68;66.31
40155;BME280;25875;48.202;16.334;2023-05-18T07:46:49;99730.00;;;9.69;66.30
40155;BME280;25875;48.202;16.334;2023-05-18T07:49:16;99731.78;;;9.68;66.53
40155;BME280;25875;48.202;16.334;2023-05-18T07:51:43;99722.91;;;9.69;66.55
40155;BME280;25875;48.202;16.334;2023-05-18T07:54:10;99709.31;;;9.58;66.35
40155;BME280;25875;48.202;16.334;2023-05-18T07:56:37;99728.16;;;9.71;66.38
40155;BME280;25875;48.202;16.334;2023-05-18T07:59:03;99734.22;;;9.73;66.33
40155;BME280;25875;48.202;16.334;2023-05-18T08:01:32;99730.66;;;9.74;66.32
40155;BME280;25875;48.202;16.334;2023-05-18T08:03:59;99727.16;;;9.73;66.35
40155;BME280;25875;48.202;16.334;2023-05-18T08:06:26;99727.16;;;9.73;66.23
40155;BME280;25875;48.202;16.334;2023-05-18T08:08:52;99727.28;;;9.70;66.19
40155;BME280;25875;48.202;16.334;2023-05-18T08:11:21;99732.56;;;9.70;66.02
40155;BME280;25875;48.202;16.334;2023-05-18T08:13:47;99743.16;;;9.70;66.05
40155;BME280;25875;48.202;16.334;2023-05-18T08:16:14;99600.28;;;8.92;66.06
40155;BME280;25875;48.202;16.334;2023-05-18T08:18:42;99733.38;;;9.72;66.31
40155;BME280;25875;48.202;16.334;2023-05-18T08:21:09;99732.44;;;9.73;66.11
40155;BME280;25875;48.202;16.334;2023-05-18T08:23:36;99740.25;;;9.76;66.11
40155;BME280;25875;48.202;16.334;2023-05-18T08:26:03;99732.22;;;9.78;66.05
40155;BME280;25875;48.202;16.334;2023-05-18T08:28:30;99741.81;;;9.80;65.83
40155;BME280;25875;48.202;16.334;2023-05-18T08:30:57;99737.44;;;9.79;65.75
40155;BME280;25875;48.202;16.334;2023-05-18T08:33:24;99741.75;;;9.82;65.87
40155;BME280;25875;48.202;16.334;2023-05-18T08:35:52;99745.25;;;9.82;65.75
40155;BME280;25875;48.202;16.334;2023-05-18T08:38:19;99738.16;;;9.83;65.78
40155;BME280;25875;48.202;16.334;2023-05-18T08:40:52;99735.59;;;9.81;65.03
40155;BME280;25875;48.202;16.334;2023-05-18T08:43:20;99741.75;;;9.82;65.41
40155;BME280;25875;48.202;16.334;2023-05-18T08:45:58;99747.16;;;9.60;64.83
40155;BME280;25875;48.202;16.334;2023-05-18T08:48:30;99747.91;;;9.82;65.32
40155;BME280;25875;48.202;16.334;2023-05-18T08:51:00;99745.19;;;9.84;64.91
40155;BME280;25875;48.202;16.334;2023-05-18T08:53:28;99677.59;;;9.38;65.22
40155;BME280;25875;48.202;16.334;2023-05-18T08:55:58;99742.47;;;9.85;64.82
40155;BME280;25875;48.202;16.334;2023-05-18T08:58:31;99742.47;;;9.85;64.80
40155;BME280;25875;48.202;16.334;2023-05-18T09:00:59;99745.03;;;9.87;65.41
40155;BME280;25875;48.202;16.334;2023-05-18T09:03:28;99744.03;;;9.89;65.09
40155;BME280;25875;48.202;16.334;2023-05-18T09:05:55;99744.84;;;9.91;65.18
40155;BME280;25875;48.202;16.334;2023-05-18T09:08:27;99749.97;;;9.94;65.11
40155;BME280;25875;48.202;16.334;2023-05-18T09:10:55;99738.53;;;9.94;65.11
40155;BME280;25875;48.202;16.334;2023-05-18T09:13:23;99741.19;;;9.94;64.98
40155;BME280;25875;48.202;16.334;2023-05-18T09:15:51;99741.09;;;9.95;64.92
40155;BME280;25875;48.202;16.334;2023-05-18T09:18:18;99742.03;;;9.94;64.96
40155;BME280;25875;48.202;16.334;2023-05-18T09:20:45;99737.59;;;9.95;65.12
40155;BME280;25875;48.202;16.334;2023-05-18T09:23:14;99736.69;;;9.96;64.92
40155;BME280;25875;48.202;16.334;2023-05-18T09:25:43;99738.47;;;9.95;64.75
40155;BME280;25875;48.202;16.334;2023-05-18T09:28:12;99741.91;;;9.98;64.88
40155;BME280;25875;48.202;16.334;2023-05-18T09:30:40;99742.69;;;10.00;64.84
40155;BME280;25875;48.202;16.334;2023-05-18T09:33:14;99752.34;;;10.01;64.20
40155;BME280;25875;48.202;16.334;2023-05-18T09:35:43;99738.19;;;10.02;64.82
40155;BME280;25875;48.202;16.334;2023-05-18T09:38:11;99741.75;;;10.01;64.86
40155;BME280;25875;48.202;16.334;2023-05-18T09:40:44;99747.06;;;10.01;64.45
40155;BME280;25875;48.202;16.334;2023-05-18T09:43:11;99668.25;;;9.49;64.76
40155;BME280;25875;48.202;16.334;2023-05-18T09:45:41;99751.41;;;10.02;64.83
40155;BME280;25875;48.202;16.334;2023-05-18T09:48:09;99744.34;;;10.02;64.91
40155;BME280;25875;48.202;16.334;2023-05-18T09:50:36;99738.03;;;10.05;64.89
40155;BME280;25875;48.202;16.334;2023-05-18T09:53:05;99715.78;;;9.90;64.67
40155;BME280;25875;48.202;16.334;2023-05-18T09:55:36;99743.19;;;10.08;64.83
40155;BME280;25875;48.202;16.334;2023-05-18T09:58:07;99389.50;;;8.01;64.63
40155;BME280;25875;48.202;16.334;2023-05-18T10:00:36;99725.16;;;9.97;64.91
40155;BME280;25875;48.202;16.334;2023-05-18T10:03:04;99747.41;;;10.12;64.99
40155;BME280;25875;48.202;16.334;2023-05-18T10:05:41;99753.50;;;10.14;64.87
40155;BME280;25875;48.202;16.334;2023-05-18T10:08:08;99747.25;;;10.15;65.00
40155;BME280;25875;48.202;16.334;2023-05-18T10:10:38;99740.16;;;10.15;64.73
40155;BME280;25875;48.202;16.334;2023-05-18T10:13:06;99743.59;;;10.17;64.68
40155;BME280;25875;48.202;16.334;2023-05-18T10:15:34;99751.56;;;10.17;64.93
40155;BME280;25875;48.202;16.334;2023-05-18T10:18:03;99746.19;;;10.19;64.64
40155;BME280;25875;48.202;16.334;2023-05-18T10:20:34;99754.13;;;10.19;64.91
40155;BME280;25875;48.202;16.334;2023-05-18T10:23:04;99692.31;;;9.82;64.54
40155;BME280;25875;48.202;16.334;2023-05-18T10:25:32;99745.25;;;10.20;64.86
40155;BME280;25875;48.202;16.334;2023-05-18T10:28:06;99744.31;;;10.21;64.27
40155;BME280;25875;48.202;16.334;2023-05-18T10:30:36;99742.59;;;10.20;64.60
40155;BME280;25875;48.202;16.334;2023-05-18T10:33:06;99746.97;;;10.21;64.82
40155;BME280;25875;48.202;16.334;2023-05-18T10:35:34;99738.09;;;10.22;64.59
40155;BME280;25875;48.202;16.334;2023-05-18T10:38:04;99743.31;;;10.23;64.52
40155;BME280;25875;48.202;16.334;2023-05-18T10:40:31;99714.84;;;10.10;64.63
40155;BME280;25875;48.202;16.334;2023-05-18T10:43:01;99735.22;;;10.26;64.85
40155;BME280;25875;48.202;16.334;2023-05-18T10:45:32;99676.06;;;9.90;64.55
40155;BME280;25875;48.202;16.334;2023-05-18T10:48:00;99743.88;;;10.30;64.58
40155;BME280;25875;48.202;16.334;2023-05-18T10:50:30;99744.75;;;10.31;64.83
40155;BME280;25875;48.202;16.334;2023-05-18T10:52:58;99731.66;;;10.27;64.79
40155;BME280;25875;48.202;16.334;2023-05-18T10:55:25;99733.28;;;10.30;64.62
40155;BME280;25875;48.202;16.334;2023-05-18T10:57:57;99736.72;;;10.32;64.44
40155;BME280;25875;48.202;16.334;2023-05-18T11:00:26;99734.06;;;10.32;64.70
40155;BME280;25875;48.202;16.334;2023-05-18T11:02:55;99734.00;;;10.34;64.59
40155;BME280;25875;48.202;16.334;2023-05-18T11:05:23;99732.13;;;10.36;64.72
40155;BME280;25875;48.202;16.334;2023-05-18T11:07:58;99670.34;;;9.99;64.26
40155;BME280;25875;48.202;16.334;2023-05-18T11:10:32;99730.19;;;10.39;64.25
40155;BME280;25875;48.202;16.334;2023-05-18T11:12:59;99736.34;;;10.40;64.53
40155;BME280;25875;48.202;16.334;2023-05-18T11:18:36;99713.19;;;10.26;64.42
40155;BME280;25875;48.202;16.334;2023-05-18T11:21:17;99741.56;;;10.41;64.66
40155;BME280;25875;48.202;16.334;2023-05-18T11:24:12;99735.34;;;10.42;64.11
40155;BME280;25875;48.202;16.334;2023-05-18T11:26:39;99744.16;;;10.43;64.88
40155;BME280;25875;48.202;16.334;2023-05-18T11:29:15;99739.72;;;10.43;64.44
40155;BME280;25875;48.202;16.334;2023-05-18T11:31:43;99742.28;;;10.45;64.78
40155;BME280;25875;48.202;16.334;2023-05-18T11:34:35;99744.78;;;10.48;64.25
40155;BME280;25875;48.202;16.334;2023-05-18T11:37:03;99742.06;;;10.49;64.82
40155;BME280;25875;48.202;16.334;2023-05-18T11:39:31;99752.66;;;10.49;64.73
40155;BME280;25875;48.202;16.334;2023-05-18T11:41:59;99741.84;;;10.54;64.84
40155;BME280;25875;48.202;16.334;2023-05-18T11:44:27;99739.19;;;10.54;64.77
40155;BME280;25875;48.202;16.334;2023-05-18T11:47:02;99741.84;;;10.54;64.54
40155;BME280;25875;48.202;16.334;2023-05-18T11:49:29;99752.59;;;10.51;64.75
40155;BME280;25875;48.202;16.334;2023-05-18T11:52:04;99740.97;;;10.53;64.69
40155;BME280;25875;48.202;16.334;2023-05-18T11:54:39;99745.28;;;10.56;64.36
40155;BME280;25875;48.202;16.334;2023-05-18T11:57:07;99744.19;;;10.60;64.74
40155;BME280;25875;48.202;16.334;2023-05-18T11:59:37;99730.00;;;10.61;64.67
40155;BME280;25875;48.202;16.334;2023-05-18T12:02:05;99735.06;;;10.66;64.74
40155;BME280;25875;48.202;16.334;2023-05-18T12:04:35;99741.16;;;10.68;64.86
40155;BME280;25875;48.202;16.334;2023-05-18T12:07:09;99733.13;;;10.69;64.57
40155;BME280;25875;48.202;16.334;2023-05-18T12:09:39;99741.25;;;10.66;64.56
40155;BME280;25875;48.202;16.334;2023-05-18T12:12:08;99748.97;;;10.71;64.97
40155;BME280;25875;48.202;16.334;2023-05-18T12:14:37;99675.16;;;10.27;64.72
40155;BME280;25875;48.202;16.334;2023-05-18T12:17:05;99750.53;;;10.75;64.80
40155;BME280;25875;48.202;16.334;2023-05-18T12:19:41;99744.28;;;10.76;64.29
40155;BME280;25875;48.202;16.334;2023-05-18T12:22:10;99747.81;;;10.76;64.88
40155;BME280;25875;48.202;16.334;2023-05-18T12:24:38;99591.34;;;9.90;64.60
40155;BME280;25875;48.202;16.334;2023-05-18T12:27:05;99745.97;;;10.78;64.90
40155;BME280;25875;48.202;16.334;2023-05-18T12:29:33;99738.78;;;10.80;64.93
40155;BME280;25875;48.202;16.334;2023-05-18T12:32:04;99746.75;;;10.80;64.80
40155;BME280;25875;48.202;16.334;2023-05-18T12:34:32;99749.31;;;10.82;64.84
40155;BME280;25875;48.202;16.334;2023-05-18T12:36:59;99747.59;;;10.81;64.85
40155;BME280;25875;48.202;16.334;2023-05-18T12:39:27;99707.09;;;10.60;64.72
40155;BME280;25875;48.202;16.334;2023-05-18T12:42:07;99737.78;;;10.83;64.57
40155;BME280;25875;48.202;16.334;2023-05-18T12:44:34;99742.00;;;10.87;65.02
40155;BME280;25875;48.202;16.334;2023-05-18T12:47:01;99737.56;;;10.87;65.16
40155;BME280;25875;48.202;16.334;2023-05-18T12:49:28;99714.28;;;10.75;65.17
40155;BME280;25875;48.202;16.334;2023-05-18T12:51:55;99700.38;;;10.70;65.25
40155;BME280;25875;48.202;16.334;2023-05-18T12:54:28;99741.59;;;10.95;65.14
40155;BME280;25875;48.202;16.334;2023-05-18T12:56:55;99749.34;;;10.99;65.03
40155;BME280;25875;48.202;16.334;2023-05-18T12:59:25;99739.66;;;10.98;65.24
40155;BME280;25875;48.202;16.334;2023-05-18T13:01:53;99745.81;;;10.99;64.98
40155;BME280;25875;48.202;16.334;2023-05-18T13:04:21;99668.72;;;10.50;64.86
40155;BME280;25875;48.202;16.334;2023-05-18T13:06:48;99738.81;;;10.98;65.07